sensor_id;sensor_type;location;lat;lon;timestamp;temperature;humidity
16827;DHT22;8530;49.540;8.576;2023-04-09T00:00:02;10.30;54.90
16827;DHT22;8530;49.540;8.576;2023-04-09T00:02:29;10.30;55.00
16827;DHT22;8530;49.540;8.576;2023-04-09T00:04:57;10.20;54.90
16827;DHT22;8530;49.540;8.576;2023-04-09T00:07:26;10.20;54.90
16827;DHT22;8530;49.540;8.576;2023-04-09T00:09:53;10.20;55.00
16827;DHT22;8530;49.540;8.576;2023-04-09T00:12:20;10.20;55.00
16827;DHT22;8530;49.540;8.576;2023-04-09T00:14:46;10.20;55.10
16827;DHT22;8530;49.540;8.576;2023-04-09T00:17:13;10.20;55.10
16827;DHT22;8530;49.540;8.576;2023-04-09T00:19:40;10.10;55.10
16827;DHT22;8530;49.540;8.576;2023-04-09T00:22:08;10.10;55.20
16827;DHT22;8530;49.540;8.576;2023-04-09T00:24:35;10.10;55.20
16827;DHT22;8530;49.540;8.576;2023-04-09T00:27:01;10.10;55.20
16827;DHT22;8530;49.540;8.576;2023-04-09T00:29:28;10.10;55.30
16827;DHT22;8530;49.540;8.576;2023-04-09T00:31:55;10.00;55.30
16827;DHT22;8530;49.540;8.576;2023-04-09T00:34:22;10.00;55.40
16827;DHT22;8530;49.540;8.576;2023-04-09T00:36:49;10.00;55.50
16827;DHT22;8530;49.540;8.576;2023-04-09T00:39:17;10.00;55.60
16827;DHT22;8530;49.540;8.576;2023-04-09T00:41:43;10.00;55.60
16827;DHT22;8530;49.540;8.576;2023-04-09T00:44:10;10.00;55.70
16827;DHT22;8530;49.540;8.576;2023-04-09T00:46:37;9.90;56.60
16827;DHT22;8530;49.540;8.576;2023-04-09T00:49:04;9.90;56.70
16827;DHT22;8530;49.540;8.576;2023-04-09T00:51:32;9.90;56.80
16827;DHT22;8530;49.540;8.576;2023-04-09T00:53:58;9.90;56.80
16827;DHT22;8530;49.540;8.576;2023-04-09T00:56:27;9.90;56.90
16827;DHT22;8530;49.540;8.576;2023-04-09T00:58:55;9.90;57.00
16827;DHT22;8530;49.540;8.576;2023-04-09T01:01:21;9.90;57.00
16827;DHT22;8530;49.540;8.576;2023-04-09T01:03:48;9.90;57.10
16827;DHT22;8530;49.540;8.576;2023-04-09T01:06:21;9.90;57.20
16827;DHT22;8530;49.540;8.576;2023-04-09T01:09:00;9.90;57.30
16827;DHT22;8530;49.540;8.576;2023-04-09T01:11:36;9.80;57.30
16827;DHT22;8530;49.540;8.576;2023-04-09T01:14:07;9.80;57.40
16827;DHT22;8530;49.540;8.576;2023-04-09T01:16:41;9.80;57.40
16827;DHT22;8530;49.540;8.576;2023-04-09T01:19:20;9.80;57.50
16827;DHT22;8530;49.540;8.576;2023-04-09T01:21:54;9.80;57.60
16827;DHT22;8530;49.540;8.576;2023-04-09T01:24:35;9.70;57.60
16827;DHT22;8530;49.540;8.576;2023-04-09T01:27:06;9.70;57.80
16827;DHT22;8530;49.540;8.576;2023-04-09T01:29:38;9.70;57.80
16827;DHT22;8530;49.540;8.576;2023-04-09T01:32:07;9.70;57.90
16827;DHT22;8530;49.540;8.576;2023-04-09T01:34:34;9.60;57.90
16827;DHT22;8530;49.540;8.576;2023-04-09T01:37:03;9.60;58.10
16827;DHT22;8530;49.540;8.576;2023-04-09T01:39:30;9.60;58.10
16827;DHT22;8530;49.540;8.576;2023-04-09T01:41:58;9.60;58.30
16827;DHT22;8530;49.540;8.576;2023-04-09T01:44:26;9.60;58.30
16827;DHT22;8530;49.540;8.576;2023-04-09T01:46:57;9.60;58.40
16827;DHT22;8530;49.540;8.576;2023-04-09T01:49:25;9.50;58.40
16827;DHT22;8530;49.540;8.576;2023-04-09T01:51:52;9.50;58.50
16827;DHT22;8530;49.540;8.576;2023-04-09T01:54:19;9.50;58.60
16827;DHT22;8530;49.540;8.576;2023-04-09T01:56:47;9.50;58.70
16827;DHT22;8530;49.540;8.576;2023-04-09T01:59:14;9.50;58.80
16827;DHT22;8530;49.540;8.576;2023-04-09T02:01:52;9.50;59.00
16827;DHT22;8530;49.540;8.576;2023-04-09T02:04:25;9.40;59.00
16827;DHT22;8530;49.540;8.576;2023-04-09T02:06:56;9.40;59.10
16827;DHT22;8530;49.540;8.576;2023-04-09T02:09:25;9.40;59.20
16827;DHT22;8530;49.540;8.576;2023-04-09T02:11:54;9.40;59.30
16827;DHT22;8530;49.540;8.576;2023-04-09T02:14:23;9.30;59.30
16827;DHT22;8530;49.540;8.576;2023-04-09T02:16:51;9.30;59.40
16827;DHT22;8530;49.540;8.576;2023-04-09T02:19:18;9.20;59.40
16827;DHT22;8530;49.540;8.576;2023-04-09T02:21:46;9.20;59.50
16827;DHT22;8530;49.540;8.576;2023-04-09T02:24:13;9.10;59.60
16827;DHT22;8530;49.540;8.576;2023-04-09T02:26:39;9.10;59.70
16827;DHT22;8530;49.540;8.576;2023-04-09T02:29:06;9.00;59.80
16827;DHT22;8530;49.540;8.576;2023-04-09T02:31:33;8.90;59.90
16827;DHT22;8530;49.540;8.576;2023-04-09T02:34:00;8.80;60.70
16827;DHT22;8530;49.540;8.576;2023-04-09T02:36:26;8.80;60.20
16827;DHT22;8530;49.540;8.576;2023-04-09T02:38:58;8.70;60.30
16827;DHT22;8530;49.540;8.576;2023-04-09T02:41:24;8.60;60.50
16827;DHT22;8530;49.540;8.576;2023-04-09T02:43:51;8.60;60.60
16827;DHT22;8530;49.540;8.576;2023-04-09T02:46:18;8.50;60.80
16827;DHT22;8530;49.540;8.576;2023-04-09T02:48:45;8.40;60.90
16827;DHT22;8530;49.540;8.576;2023-04-09T02:51:11;8.30;61.10
16827;DHT22;8530;49.540;8.576;2023-04-09T02:53:38;8.30;61.30
16827;DHT22;8530;49.540;8.576;2023-04-09T02:56:06;8.20;62.10
16827;DHT22;8530;49.540;8.576;2023-04-09T02:58:33;8.20;61.80
16827;DHT22;8530;49.540;8.576;2023-04-09T03:01:00;8.20;61.90
16827;DHT22;8530;49.540;8.576;2023-04-09T03:03:26;8.10;62.10
16827;DHT22;8530;49.540;8.576;2023-04-09T03:05:53;8.10;62.30
16827;DHT22;8530;49.540;8.576;2023-04-09T03:08:20;8.10;62.60
16827;DHT22;8530;49.540;8.576;2023-04-09T03:10:47;8.10;62.70
16827;DHT22;8530;49.540;8.576;2023-04-09T03:13:15;8.10;63.00
16827;DHT22;8530;49.540;8.576;2023-04-09T03:15:42;8.10;63.20
16827;DHT22;8530;49.540;8.576;2023-04-09T03:18:08;8.10;63.40
16827;DHT22;8530;49.540;8.576;2023-04-09T03:20:37;8.10;63.60
16827;DHT22;8530;49.540;8.576;2023-04-09T03:23:04;8.10;63.80
16827;DHT22;8530;49.540;8.576;2023-04-09T03:25:31;8.10;64.00
16827;DHT22;8530;49.540;8.576;2023-04-09T03:27:57;8.10;64.20
16827;DHT22;8530;49.540;8.576;2023-04-09T03:30:25;8.10;64.40
16827;DHT22;8530;49.540;8.576;2023-04-09T03:32:52;8.10;64.70
16827;DHT22;8530;49.540;8.576;2023-04-09T03:35:19;8.10;64.80
16827;DHT22;8530;49.540;8.576;2023-04-09T03:37:45;8.10;65.00
16827;DHT22;8530;49.540;8.576;2023-04-09T03:40:12;8.10;65.10
16827;DHT22;8530;49.540;8.576;2023-04-09T03:42:41;8.10;65.40
16827;DHT22;8530;49.540;8.576;2023-04-09T03:45:08;8.10;65.60
16827;DHT22;8530;49.540;8.576;2023-04-09T03:47:36;8.00;65.60
16827;DHT22;8530;49.540;8.576;2023-04-09T03:50:03;8.00;65.90
16827;DHT22;8530;49.540;8.576;2023-04-09T03:52:30;8.00;66.00
16827;DHT22;8530;49.540;8.576;2023-04-09T03:54:57;7.90;66.20
16827;DHT22;8530;49.540;8.576;2023-04-09T03:57:23;7.80;66.30
16827;DHT22;8530;49.540;8.576;2023-04-09T03:59:50;7.80;66.60
16827;DHT22;8530;49.540;8.576;2023-04-09T04:02:17;7.80;67.00
16827;DHT22;8530;49.540;8.576;2023-04-09T04:04:45;7.70;67.30
16827;DHT22;8530;49.540;8.576;2023-04-09T04:07:11;7.70;67.60
16827;DHT22;8530;49.540;8.576;2023-04-09T04:09:38;7.70;68.00
16827;DHT22;8530;49.540;8.576;2023-04-09T04:12:05;7.80;68.40
16827;DHT22;8530;49.540;8.576;2023-04-09T04:14:32;7.80;68.80
16827;DHT22;8530;49.540;8.576;2023-04-09T04:16:58;7.80;69.00
16827;DHT22;8530;49.540;8.576;2023-04-09T04:19:25;7.90;69.30
16827;DHT22;8530;49.540;8.576;2023-04-09T04:21:53;7.90;69.60
16827;DHT22;8530;49.540;8.576;2023-04-09T04:24:20;7.90;69.80
16827;DHT22;8530;49.540;8.576;2023-04-09T04:26:47;7.90;70.00
16827;DHT22;8530;49.540;8.576;2023-04-09T04:29:13;7.90;70.30
16827;DHT22;8530;49.540;8.576;2023-04-09T04:31:40;7.90;70.60
16827;DHT22;8530;49.540;8.576;2023-04-09T04:34:07;7.90;70.90
16827;DHT22;8530;49.540;8.576;2023-04-09T04:36:33;7.90;71.10
16827;DHT22;8530;49.540;8.576;2023-04-09T04:39:03;7.90;71.40
16827;DHT22;8530;49.540;8.576;2023-04-09T04:41:29;7.90;71.80
16827;DHT22;8530;49.540;8.576;2023-04-09T04:43:56;7.90;72.00
16827;DHT22;8530;49.540;8.576;2023-04-09T04:46:23;7.90;72.30
16827;DHT22;8530;49.540;8.576;2023-04-09T04:48:50;7.90;72.60
16827;DHT22;8530;49.540;8.576;2023-04-09T04:51:16;7.90;72.90
16827;DHT22;8530;49.540;8.576;2023-04-09T04:53:43;7.90;73.30
16827;DHT22;8530;49.540;8.576;2023-04-09T04:56:13;7.90;73.60
16827;DHT22;8530;49.540;8.576;2023-04-09T04:58:40;8.00;74.00
16827;DHT22;8530;49.540;8.576;2023-04-09T05:01:07;8.00;74.20
16827;DHT22;8530;49.540;8.576;2023-04-09T05:03:33;8.00;74.40
16827;DHT22;8530;49.540;8.576;2023-04-09T05:06:00;8.00;74.70
16827;DHT22;8530;49.540;8.576;2023-04-09T05:08:27;8.10;75.00
16827;DHT22;8530;49.540;8.576;2023-04-09T05:10:54;8.20;75.50
16827;DHT22;8530;49.540;8.576;2023-04-09T05:13:22;8.20;75.50
16827;DHT22;8530;49.540;8.576;2023-04-09T05:15:49;8.20;75.70
16827;DHT22;8530;49.540;8.576;2023-04-09T05:18:16;8.20;75.90
16827;DHT22;8530;49.540;8.576;2023-04-09T05:20:42;8.30;76.20
16827;DHT22;8530;49.540;8.576;2023-04-09T05:23:09;8.30;76.50
16827;DHT22;8530;49.540;8.576;2023-04-09T05:25:37;8.40;76.80
16827;DHT22;8530;49.540;8.576;2023-04-09T05:28:04;8.40;77.00
16827;DHT22;8530;49.540;8.576;2023-04-09T05:30:32;8.40;77.20
16827;DHT22;8530;49.540;8.576;2023-04-09T05:32:58;8.40;77.30
16827;DHT22;8530;49.540;8.576;2023-04-09T05:35:25;8.40;77.50
16827;DHT22;8530;49.540;8.576;2023-04-09T05:37:52;8.50;77.70
16827;DHT22;8530;49.540;8.576;2023-04-09T05:40:19;8.60;78.00
16827;DHT22;8530;49.540;8.576;2023-04-09T05:42:45;8.60;78.70
16827;DHT22;8530;49.540;8.576;2023-04-09T05:45:12;8.60;78.30
16827;DHT22;8530;49.540;8.576;2023-04-09T05:47:40;8.70;78.50
16827;DHT22;8530;49.540;8.576;2023-04-09T05:50:07;8.80;78.60
16827;DHT22;8530;49.540;8.576;2023-04-09T05:52:34;8.90;78.80
16827;DHT22;8530;49.540;8.576;2023-04-09T05:55:01;9.00;78.90
16827;DHT22;8530;49.540;8.576;2023-04-09T05:57:27;9.10;79.60
16827;DHT22;8530;49.540;8.576;2023-04-09T05:59:55;9.20;79.10
16827;DHT22;8530;49.540;8.576;2023-04-09T06:02:22;9.40;79.10
16827;DHT22;8530;49.540;8.576;2023-04-09T06:04:50;9.50;79.10
16827;DHT22;8530;49.540;8.576;2023-04-09T06:07:17;9.70;79.10
16827;DHT22;8530;49.540;8.576;2023-04-09T06:09:44;9.90;79.20
16827;DHT22;8530;49.540;8.576;2023-04-09T06:12:11;10.00;78.00
16827;DHT22;8530;49.540;8.576;2023-04-09T06:14:38;10.10;77.60
16827;DHT22;8530;49.540;8.576;2023-04-09T06:17:04;10.20;77.30
16827;DHT22;8530;49.540;8.576;2023-04-09T06:19:31;10.30;77.00
16827;DHT22;8530;49.540;8.576;2023-04-09T06:22:01;10.30;76.60
16827;DHT22;8530;49.540;8.576;2023-04-09T06:24:30;10.40;77.10
16827;DHT22;8530;49.540;8.576;2023-04-09T06:26:57;10.50;76.50
16827;DHT22;8530;49.540;8.576;2023-04-09T06:29:24;10.60;76.40
16827;DHT22;8530;49.540;8.576;2023-04-09T06:31:51;10.70;76.40
16827;DHT22;8530;49.540;8.576;2023-04-09T06:34:18;10.90;76.30
16827;DHT22;8530;49.540;8.576;2023-04-09T06:36:46;11.10;76.30
16827;DHT22;8530;49.540;8.576;2023-04-09T06:39:24;11.30;76.00
16827;DHT22;8530;49.540;8.576;2023-04-09T06:41:51;11.50;75.50
16827;DHT22;8530;49.540;8.576;2023-04-09T06:44:17;11.70;75.50
16827;DHT22;8530;49.540;8.576;2023-04-09T06:46:44;11.90;75.10
16827;DHT22;8530;49.540;8.576;2023-04-09T06:49:11;12.30;75.40
16827;DHT22;8530;49.540;8.576;2023-04-09T06:51:37;12.60;74.70
16827;DHT22;8530;49.540;8.576;2023-04-09T06:54:04;12.90;74.30
16827;DHT22;8530;49.540;8.576;2023-04-09T06:56:32;13.30;74.10
16827;DHT22;8530;49.540;8.576;2023-04-09T06:58:59;13.60;73.80
16827;DHT22;8530;49.540;8.576;2023-04-09T07:01:26;14.20;73.60
16827;DHT22;8530;49.540;8.576;2023-04-09T07:03:52;14.90;74.40
16827;DHT22;8530;49.540;8.576;2023-04-09T07:06:19;15.40;72.90
16827;DHT22;8530;49.540;8.576;2023-04-09T07:08:46;15.80;71.90
16827;DHT22;8530;49.540;8.576;2023-04-09T07:11:13;16.20;70.40
16827;DHT22;8530;49.540;8.576;2023-04-09T07:13:42;16.40;68.60
16827;DHT22;8530;49.540;8.576;2023-04-09T07:16:09;16.70;67.80
16827;DHT22;8530;49.540;8.576;2023-04-09T07:18:36;17.20;66.70
16827;DHT22;8530;49.540;8.576;2023-04-09T07:21:02;17.80;65.10
16827;DHT22;8530;49.540;8.576;2023-04-09T07:23:32;18.20;63.40
16827;DHT22;8530;49.540;8.576;2023-04-09T07:26:00;18.60;62.10
16827;DHT22;8530;49.540;8.576;2023-04-09T07:28:27;19.50;62.10
16827;DHT22;8530;49.540;8.576;2023-04-09T07:30:55;21.40;63.40
16827;DHT22;8530;49.540;8.576;2023-04-09T07:33:22;21.90;59.20
16827;DHT22;8530;49.540;8.576;2023-04-09T07:35:49;21.80;55.40
16827;DHT22;8530;49.540;8.576;2023-04-09T07:38:15;21.20;52.70
16827;DHT22;8530;49.540;8.576;2023-04-09T07:40:42;20.80;51.20
16827;DHT22;8530;49.540;8.576;2023-04-09T07:43:09;20.90;50.30
16827;DHT22;8530;49.540;8.576;2023-04-09T07:45:36;21.60;51.10
16827;DHT22;8530;49.540;8.576;2023-04-09T07:48:04;21.70;49.10
16827;DHT22;8530;49.540;8.576;2023-04-09T07:50:33;21.60;47.50
16827;DHT22;8530;49.540;8.576;2023-04-09T07:53:00;21.40;46.20
16827;DHT22;8530;49.540;8.576;2023-04-09T07:55:26;21.40;45.20
16827;DHT22;8530;49.540;8.576;2023-04-09T07:57:53;21.30;43.80
16827;DHT22;8530;49.540;8.576;2023-04-09T08:00:20;21.40;43.40
16827;DHT22;8530;49.540;8.576;2023-04-09T08:02:46;21.60;42.80
16827;DHT22;8530;49.540;8.576;2023-04-09T08:05:14;21.70;42.30
16827;DHT22;8530;49.540;8.576;2023-04-09T08:07:41;22.20;42.30
16827;DHT22;8530;49.540;8.576;2023-04-09T08:10:08;24.00;45.40
16827;DHT22;8530;49.540;8.576;2023-04-09T08:12:39;25.80;44.00
16827;DHT22;8530;49.540;8.576;2023-04-09T08:15:06;26.50;41.70
16827;DHT22;8530;49.540;8.576;2023-04-09T08:17:33;26.80;39.50
16827;DHT22;8530;49.540;8.576;2023-04-09T08:20:01;26.20;37.30
16827;DHT22;8530;49.540;8.576;2023-04-09T08:22:29;25.80;36.40
16827;DHT22;8530;49.540;8.576;2023-04-09T08:24:56;26.60;35.80
16827;DHT22;8530;49.540;8.576;2023-04-09T08:27:23;28.00;35.50
16827;DHT22;8530;49.540;8.576;2023-04-09T08:29:50;28.60;33.70
16827;DHT22;8530;49.540;8.576;2023-04-09T08:32:16;29.20;32.10
16827;DHT22;8530;49.540;8.576;2023-04-09T08:34:43;29.40;30.50
16827;DHT22;8530;49.540;8.576;2023-04-09T08:37:10;29.40;29.10
16827;DHT22;8530;49.540;8.576;2023-04-09T08:39:38;29.00;28.30
16827;DHT22;8530;49.540;8.576;2023-04-09T08:42:05;28.00;26.60
16827;DHT22;8530;49.540;8.576;2023-04-09T08:44:33;26.90;25.80
16827;DHT22;8530;49.540;8.576;2023-04-09T08:47:00;26.00;25.60
16827;DHT22;8530;49.540;8.576;2023-04-09T08:49:27;25.00;25.60
16827;DHT22;8530;49.540;8.576;2023-04-09T08:51:53;24.20;25.70
16827;DHT22;8530;49.540;8.576;2023-04-09T08:54:20;23.50;25.80
16827;DHT22;8530;49.540;8.576;2023-04-09T08:56:52;23.00;26.00
16827;DHT22;8530;49.540;8.576;2023-04-09T08:59:19;22.60;26.00
16827;DHT22;8530;49.540;8.576;2023-04-09T09:01:49;22.00;26.10
16827;DHT22;8530;49.540;8.576;2023-04-09T09:04:43;21.80;26.60
16827;DHT22;8530;49.540;8.576;2023-04-09T09:07:12;21.80;27.10
16827;DHT22;8530;49.540;8.576;2023-04-09T09:09:55;21.70;26.90
16827;DHT22;8530;49.540;8.576;2023-04-09T09:12:36;21.40;27.00
16827;DHT22;8530;49.540;8.576;2023-04-09T09:15:04;21.20;27.10
16827;DHT22;8530;49.540;8.576;2023-04-09T09:17:33;21.00;26.90
16827;DHT22;8530;49.540;8.576;2023-04-09T09:20:18;20.40;26.80
16827;DHT22;8530;49.540;8.576;2023-04-09T09:22:48;19.70;27.10
16827;DHT22;8530;49.540;8.576;2023-04-09T09:25:15;19.60;27.60
16827;DHT22;8530;49.540;8.576;2023-04-09T09:27:44;19.40;27.80
16827;DHT22;8530;49.540;8.576;2023-04-09T09:30:20;19.30;28.10
16827;DHT22;8530;49.540;8.576;2023-04-09T09:32:50;19.40;28.60
16827;DHT22;8530;49.540;8.576;2023-04-09T09:35:17;19.60;28.90
16827;DHT22;8530;49.540;8.576;2023-04-09T09:37:44;19.90;29.00
16827;DHT22;8530;49.540;8.576;2023-04-09T09:40:25;20.10;29.00
16827;DHT22;8530;49.540;8.576;2023-04-09T09:42:55;20.10;29.10
16827;DHT22;8530;49.540;8.576;2023-04-09T09:45:23;20.10;29.20
16827;DHT22;8530;49.540;8.576;2023-04-09T09:47:50;20.10;29.30
16827;DHT22;8530;49.540;8.576;2023-04-09T09:50:17;20.00;29.00
16827;DHT22;8530;49.540;8.576;2023-04-09T09:52:45;19.80;28.80
16827;DHT22;8530;49.540;8.576;2023-04-09T09:55:13;19.60;28.70
16827;DHT22;8530;49.540;8.576;2023-04-09T09:57:43;19.40;28.70
16827;DHT22;8530;49.540;8.576;2023-04-09T10:00:14;19.10;28.70
16827;DHT22;8530;49.540;8.576;2023-04-09T10:02:44;18.80;28.70
16827;DHT22;8530;49.540;8.576;2023-04-09T10:05:14;18.60;28.90
16827;DHT22;8530;49.540;8.576;2023-04-09T10:07:41;18.40;29.20
16827;DHT22;8530;49.540;8.576;2023-04-09T10:10:09;18.30;29.50
16827;DHT22;8530;49.540;8.576;2023-04-09T10:12:37;18.20;29.70
16827;DHT22;8530;49.540;8.576;2023-04-09T10:15:07;18.20;29.90
16827;DHT22;8530;49.540;8.576;2023-04-09T10:17:36;18.30;29.80
16827;DHT22;8530;49.540;8.576;2023-04-09T10:20:09;18.20;29.80
16827;DHT22;8530;49.540;8.576;2023-04-09T10:22:37;18.20;29.80
16827;DHT22;8530;49.540;8.576;2023-04-09T10:25:05;18.20;29.80
16827;DHT22;8530;49.540;8.576;2023-04-09T10:27:32;18.10;29.90
16827;DHT22;8530;49.540;8.576;2023-04-09T10:30:00;18.10;29.90
16827;DHT22;8530;49.540;8.576;2023-04-09T10:32:34;17.90;29.80
16827;DHT22;8530;49.540;8.576;2023-04-09T10:35:03;17.80;30.00
16827;DHT22;8530;49.540;8.576;2023-04-09T10:37:30;17.80;30.10
16827;DHT22;8530;49.540;8.576;2023-04-09T10:39:57;17.90;30.50
16827;DHT22;8530;49.540;8.576;2023-04-09T10:42:28;18.20;30.90
16827;DHT22;8530;49.540;8.576;2023-04-09T10:45:04;18.50;31.10
16827;DHT22;8530;49.540;8.576;2023-04-09T10:47:32;18.80;31.10
16827;DHT22;8530;49.540;8.576;2023-04-09T10:50:15;19.10;31.20
16827;DHT22;8530;49.540;8.576;2023-04-09T10:52:42;19.40;31.10
16827;DHT22;8530;49.540;8.576;2023-04-09T10:55:09;19.70;31.10
16827;DHT22;8530;49.540;8.576;2023-04-09T10:57:55;19.80;30.90
16827;DHT22;8530;49.540;8.576;2023-04-09T11:00:21;20.00;30.70
16827;DHT22;8530;49.540;8.576;2023-04-09T11:03:05;20.20;30.60
16827;DHT22;8530;49.540;8.576;2023-04-09T11:05:36;20.30;30.20
16827;DHT22;8530;49.540;8.576;2023-04-09T11:08:05;20.20;30.00
16827;DHT22;8530;49.540;8.576;2023-04-09T11:10:33;20.20;30.00
16827;DHT22;8530;49.540;8.576;2023-04-09T11:13:00;20.20;29.90
16827;DHT22;8530;49.540;8.576;2023-04-09T11:15:27;20.20;29.80
16827;DHT22;8530;49.540;8.576;2023-04-09T11:17:54;20.20;29.60
16827;DHT22;8530;49.540;8.576;2023-04-09T11:20:23;20.30;29.50
16827;DHT22;8530;49.540;8.576;2023-04-09T11:22:52;20.30;29.30
16827;DHT22;8530;49.540;8.576;2023-04-09T11:25:20;20.50;29.30
16827;DHT22;8530;49.540;8.576;2023-04-09T11:27:47;20.50;29.00
16827;DHT22;8530;49.540;8.576;2023-04-09T11:30:15;20.50;28.80
16827;DHT22;8530;49.540;8.576;2023-04-09T11:32:42;20.60;28.80
16827;DHT22;8530;49.540;8.576;2023-04-09T11:35:12;20.60;28.70
16827;DHT22;8530;49.540;8.576;2023-04-09T11:37:40;20.40;28.20
16827;DHT22;8530;49.540;8.576;2023-04-09T11:40:14;20.30;28.20
16827;DHT22;8530;49.540;8.576;2023-04-09T11:42:42;20.20;27.90
16827;DHT22;8530;49.540;8.576;2023-04-09T11:45:09;20.00;27.70
16827;DHT22;8530;49.540;8.576;2023-04-09T11:47:38;20.00;27.90
16827;DHT22;8530;49.540;8.576;2023-04-09T11:50:06;19.80;27.70
16827;DHT22;8530;49.540;8.576;2023-04-09T11:52:33;19.70;27.70
16827;DHT22;8530;49.540;8.576;2023-04-09T11:55:01;19.70;27.80
16827;DHT22;8530;49.540;8.576;2023-04-09T11:57:45;19.80;27.80
16827;DHT22;8530;49.540;8.576;2023-04-09T12:00:13;19.80;27.80
16827;DHT22;8530;49.540;8.576;2023-04-09T12:02:44;19.80;27.90
16827;DHT22;8530;49.540;8.576;2023-04-09T12:05:12;20.00;27.90
16827;DHT22;8530;49.540;8.576;2023-04-09T12:07:46;19.90;27.60
16827;DHT22;8530;49.540;8.576;2023-04-09T12:10:12;20.10;27.70
16827;DHT22;8530;49.540;8.576;2023-04-09T12:12:40;20.20;27.60
16827;DHT22;8530;49.540;8.576;2023-04-09T12:15:18;20.40;27.60
16827;DHT22;8530;49.540;8.576;2023-04-09T12:17:49;20.40;27.40
16827;DHT22;8530;49.540;8.576;2023-04-09T12:20:40;20.40;27.40
16827;DHT22;8530;49.540;8.576;2023-04-09T12:23:09;20.40;27.30
16827;DHT22;8530;49.540;8.576;2023-04-09T12:25:38;20.30;27.20
16827;DHT22;8530;49.540;8.576;2023-04-09T12:28:07;20.20;27.00
16827;DHT22;8530;49.540;8.576;2023-04-09T12:30:35;20.20;27.00
16827;DHT22;8530;49.540;8.576;2023-04-09T12:33:03;20.30;27.10
16827;DHT22;8530;49.540;8.576;2023-04-09T12:35:29;20.40;27.10
16827;DHT22;8530;49.540;8.576;2023-04-09T12:37:56;20.30;26.70
16827;DHT22;8530;49.540;8.576;2023-04-09T12:40:25;20.20;26.60
16827;DHT22;8530;49.540;8.576;2023-04-09T12:42:52;20.20;26.60
16827;DHT22;8530;49.540;8.576;2023-04-09T12:45:19;20.30;26.40
16827;DHT22;8530;49.540;8.576;2023-04-09T12:47:47;20.10;26.00
16827;DHT22;8530;49.540;8.576;2023-04-09T12:50:14;20.10;25.90
16827;DHT22;8530;49.540;8.576;2023-04-09T12:52:41;20.10;25.80
16827;DHT22;8530;49.540;8.576;2023-04-09T12:55:09;20.20;25.80
16827;DHT22;8530;49.540;8.576;2023-04-09T12:57:36;20.40;25.70
16827;DHT22;8530;49.540;8.576;2023-04-09T13:00:05;20.50;25.40
16827;DHT22;8530;49.540;8.576;2023-04-09T13:02:32;20.50;25.20
16827;DHT22;8530;49.540;8.576;2023-04-09T13:05:00;20.60;25.20
16827;DHT22;8530;49.540;8.576;2023-04-09T13:07:26;20.50;25.00
16827;DHT22;8530;49.540;8.576;2023-04-09T13:09:54;20.50;24.90
16827;DHT22;8530;49.540;8.576;2023-04-09T13:12:21;20.30;24.70
16827;DHT22;8530;49.540;8.576;2023-04-09T13:14:49;20.20;24.60
16827;DHT22;8530;49.540;8.576;2023-04-09T13:17:16;20.10;24.50
16827;DHT22;8530;49.540;8.576;2023-04-09T13:19:43;20.20;24.70
16827;DHT22;8530;49.540;8.576;2023-04-09T13:22:11;20.30;24.60
16827;DHT22;8530;49.540;8.576;2023-04-09T13:24:38;20.20;24.40
16827;DHT22;8530;49.540;8.576;2023-04-09T13:27:06;20.20;24.40
16827;DHT22;8530;49.540;8.576;2023-04-09T13:29:33;20.20;24.50
16827;DHT22;8530;49.540;8.576;2023-04-09T13:32:00;20.30;24.50
16827;DHT22;8530;49.540;8.576;2023-04-09T13:34:31;20.40;24.50
16827;DHT22;8530;49.540;8.576;2023-04-09T13:36:58;20.30;24.10
16827;DHT22;8530;49.540;8.576;2023-04-09T13:39:26;20.30;24.30
16827;DHT22;8530;49.540;8.576;2023-04-09T13:41:53;20.50;24.40
16827;DHT22;8530;49.540;8.576;2023-04-09T13:44:21;20.60;24.40
16827;DHT22;8530;49.540;8.576;2023-04-09T13:46:48;20.70;24.40
16827;DHT22;8530;49.540;8.576;2023-04-09T13:49:14;20.90;24.40
16827;DHT22;8530;49.540;8.576;2023-04-09T13:51:42;21.20;24.40
16827;DHT22;8530;49.540;8.576;2023-04-09T13:54:09;21.60;24.50
16827;DHT22;8530;49.540;8.576;2023-04-09T13:56:37;22.00;24.50
16827;DHT22;8530;49.540;8.576;2023-04-09T13:59:04;22.30;24.30
16827;DHT22;8530;49.540;8.576;2023-04-09T14:01:31;22.40;23.70
16827;DHT22;8530;49.540;8.576;2023-04-09T14:03:57;22.20;23.30
16827;DHT22;8530;49.540;8.576;2023-04-09T14:06:24;22.10;23.30
16827;DHT22;8530;49.540;8.576;2023-04-09T14:08:51;22.00;23.20
16827;DHT22;8530;49.540;8.576;2023-04-09T14:11:18;22.10;23.30
16827;DHT22;8530;49.540;8.576;2023-04-09T14:13:46;22.10;23.20
16827;DHT22;8530;49.540;8.576;2023-04-09T14:16:13;22.00;23.10
16827;DHT22;8530;49.540;8.576;2023-04-09T14:18:40;21.70;22.90
16827;DHT22;8530;49.540;8.576;2023-04-09T14:21:07;21.50;22.90
16827;DHT22;8530;49.540;8.576;2023-04-09T14:23:33;21.30;22.90
16827;DHT22;8530;49.540;8.576;2023-04-09T14:26:01;21.30;23.00
16827;DHT22;8530;49.540;8.576;2023-04-09T14:28:28;21.40;23.00
16827;DHT22;8530;49.540;8.576;2023-04-09T14:30:57;21.50;22.90
16827;DHT22;8530;49.540;8.576;2023-04-09T14:33:24;21.30;22.70
16827;DHT22;8530;49.540;8.576;2023-04-09T14:35:51;21.00;22.60
16827;DHT22;8530;49.540;8.576;2023-04-09T14:38:18;20.80;22.70
16827;DHT22;8530;49.540;8.576;2023-04-09T14:40:44;20.50;22.60
16827;DHT22;8530;49.540;8.576;2023-04-09T14:43:11;20.40;22.70
16827;DHT22;8530;49.540;8.576;2023-04-09T14:45:38;20.30;22.70
16827;DHT22;8530;49.540;8.576;2023-04-09T14:48:07;20.40;22.90
16827;DHT22;8530;49.540;8.576;2023-04-09T14:50:34;20.60;23.00
16827;DHT22;8530;49.540;8.576;2023-04-09T14:53:01;20.50;22.60
16827;DHT22;8530;49.540;8.576;2023-04-09T14:55:28;20.30;22.70
16827;DHT22;8530;49.540;8.576;2023-04-09T14:57:54;20.30;22.90
16827;DHT22;8530;49.540;8.576;2023-04-09T15:00:21;20.20;22.90
16827;DHT22;8530;49.540;8.576;2023-04-09T15:02:48;20.20;23.00
16827;DHT22;8530;49.540;8.576;2023-04-09T15:05:16;20.10;23.00
16827;DHT22;8530;49.540;8.576;2023-04-09T15:07:42;20.10;23.10
16827;DHT22;8530;49.540;8.576;2023-04-09T15:10:10;20.10;23.10
16827;DHT22;8530;49.540;8.576;2023-04-09T15:12:37;20.00;23.10
16827;DHT22;8530;49.540;8.576;2023-04-09T15:15:07;19.90;23.00
16827;DHT22;8530;49.540;8.576;2023-04-09T15:17:34;19.80;23.10
16827;DHT22;8530;49.540;8.576;2023-04-09T15:20:01;19.70;23.10
16827;DHT22;8530;49.540;8.576;2023-04-09T15:22:29;19.60;23.20
16827;DHT22;8530;49.540;8.576;2023-04-09T15:24:56;19.60;23.40
16827;DHT22;8530;49.540;8.576;2023-04-09T15:27:23;19.60;23.40
16827;DHT22;8530;49.540;8.576;2023-04-09T15:29:50;19.50;23.30
16827;DHT22;8530;49.540;8.576;2023-04-09T15:32:16;19.50;23.40
16827;DHT22;8530;49.540;8.576;2023-04-09T15:34:43;19.50;23.50
16827;DHT22;8530;49.540;8.576;2023-04-09T15:37:10;19.40;23.50
16827;DHT22;8530;49.540;8.576;2023-04-09T15:39:38;19.50;23.60
16827;DHT22;8530;49.540;8.576;2023-04-09T15:42:05;19.60;23.70
16827;DHT22;8530;49.540;8.576;2023-04-09T15:44:31;19.70;23.70
16827;DHT22;8530;49.540;8.576;2023-04-09T15:46:58;19.70;23.70
16827;DHT22;8530;49.540;8.576;2023-04-09T15:49:25;19.70;23.70
16827;DHT22;8530;49.540;8.576;2023-04-09T15:51:52;19.60;23.60
16827;DHT22;8530;49.540;8.576;2023-04-09T15:54:18;19.50;23.70
16827;DHT22;8530;49.540;8.576;2023-04-09T15:56:46;19.50;23.70